sensor_id;sensor_type;location;lat;lon;timestamp;temperature;humidity
12911;DHT22;6523;49.758;6.120;2023-05-02T00:00:51;6.30;99.90
12911;DHT22;6523;49.758;6.120;2023-05-02T00:03:17;6.00;99.90
12911;DHT22;6523;49.758;6.120;2023-05-02T00:05:43;5.90;99.90
12911;DHT22;6523;49.758;6.120;2023-05-02T00:08:08;5.70;99.90
12911;DHT22;6523;49.758;6.120;2023-05-02T00:10:34;5.70;99.90
12911;DHT22;6523;49.758;6.120;2023-05-02T00:13:00;5.70;99.90
12911;DHT22;6523;49.758;6.120;2023-05-02T00:15:25;5.80;99.90
12911;DHT22;6523;49.758;6.120;2023-05-02T00:17:53;5.70;99.90
12911;DHT22;6523;49.758;6.120;2023-05-02T00:20:19;5.60;99.90
12911;DHT22;6523;49.758;6.120;2023-05-02T00:22:45;5.70;99.90
12911;DHT22;6523;49.758;6.120;2023-05-02T00:25:10;5.60;99.90
12911;DHT22;6523;49.758;6.120;2023-05-02T00:27:40;5.80;99.90
12911;DHT22;6523;49.758;6.120;2023-05-02T00:30:06;5.70;99.90
12911;DHT22;6523;49.758;6.120;2023-05-02T00:32:32;5.90;99.90
12911;DHT22;6523;49.758;6.120;2023-05-02T00:34:58;5.80;99.90
12911;DHT22;6523;49.758;6.120;2023-05-02T00:37:25;5.80;99.90
12911;DHT22;6523;49.758;6.120;2023-05-02T00:39:51;5.70;99.90
12911;DHT22;6523;49.758;6.120;2023-05-02T00:42:17;5.50;99.90
12911;DHT22;6523;49.758;6.120;2023-05-02T00:44:42;5.50;99.90
12911;DHT22;6523;49.758;6.120;2023-05-02T00:47:08;5.60;99.90
12911;DHT22;6523;49.758;6.120;2023-05-02T00:49:34;5.40;99.90
12911;DHT22;6523;49.758;6.120;2023-05-02T00:52:00;5.50;99.90
12911;DHT22;6523;49.758;6.120;2023-05-02T00:54:26;5.60;99.90
12911;DHT22;6523;49.758;6.120;2023-05-02T00:56:51;5.60;99.90
12911;DHT22;6523;49.758;6.120;2023-05-02T00:59:17;5.40;99.90
12911;DHT22;6523;49.758;6.120;2023-05-02T01:07:17;5.20;99.90
12911;DHT22;6523;49.758;6.120;2023-05-02T01:12:44;5.20;99.90
12911;DHT22;6523;49.758;6.120;2023-05-02T01:15:16;5.10;99.90
12911;DHT22;6523;49.758;6.120;2023-05-02T01:17:44;5.00;99.90
12911;DHT22;6523;49.758;6.120;2023-05-02T01:20:16;5.20;99.90
12911;DHT22;6523;49.758;6.120;2023-05-02T01:22:44;5.30;99.90
12911;DHT22;6523;49.758;6.120;2023-05-02T01:25:25;5.30;99.90
12911;DHT22;6523;49.758;6.120;2023-05-02T01:28:15;5.20;99.90
12911;DHT22;6523;49.758;6.120;2023-05-02T01:30:45;4.80;99.90
12911;DHT22;6523;49.758;6.120;2023-05-02T01:33:14;4.60;99.90
12911;DHT22;6523;49.758;6.120;2023-05-02T01:35:42;4.60;99.90
12911;DHT22;6523;49.758;6.120;2023-05-02T01:38:11;4.80;99.90
12911;DHT22;6523;49.758;6.120;2023-05-02T01:40:38;4.90;99.90
12911;DHT22;6523;49.758;6.120;2023-05-02T01:43:06;5.10;99.90
12911;DHT22;6523;49.758;6.120;2023-05-02T01:45:32;5.10;99.90
12911;DHT22;6523;49.758;6.120;2023-05-02T01:47:59;5.00;99.90
12911;DHT22;6523;49.758;6.120;2023-05-02T01:50:26;4.60;99.90
12911;DHT22;6523;49.758;6.120;2023-05-02T01:52:53;4.30;99.90
12911;DHT22;6523;49.758;6.120;2023-05-02T01:55:20;4.60;99.90
12911;DHT22;6523;49.758;6.120;2023-05-02T01:57:47;4.70;99.90
12911;DHT22;6523;49.758;6.120;2023-05-02T02:00:18;4.70;99.90
12911;DHT22;6523;49.758;6.120;2023-05-02T02:02:45;4.70;99.90
12911;DHT22;6523;49.758;6.120;2023-05-02T02:05:12;4.60;99.90
12911;DHT22;6523;49.758;6.120;2023-05-02T02:07:38;4.80;99.90
12911;DHT22;6523;49.758;6.120;2023-05-02T02:10:04;4.60;99.90
12911;DHT22;6523;49.758;6.120;2023-05-02T02:12:42;4.40;99.90
12911;DHT22;6523;49.758;6.120;2023-05-02T02:17:57;4.60;99.90
12911;DHT22;6523;49.758;6.120;2023-05-02T02:20:25;4.50;99.90
12911;DHT22;6523;49.758;6.120;2023-05-02T02:22:52;4.20;99.90
12911;DHT22;6523;49.758;6.120;2023-05-02T02:25:19;4.40;99.90
12911;DHT22;6523;49.758;6.120;2023-05-02T02:27:44;4.50;99.90
12911;DHT22;6523;49.758;6.120;2023-05-02T02:30:11;4.40;99.90
12911;DHT22;6523;49.758;6.120;2023-05-02T02:32:37;4.20;99.90
12911;DHT22;6523;49.758;6.120;2023-05-02T02:35:03;4.30;99.90
12911;DHT22;6523;49.758;6.120;2023-05-02T02:40:22;4.60;99.90
12911;DHT22;6523;49.758;6.120;2023-05-02T02:46:16;4.90;99.90
12911;DHT22;6523;49.758;6.120;2023-05-02T02:52:09;5.30;99.90
12911;DHT22;6523;49.758;6.120;2023-05-02T02:54:44;5.40;99.90
12911;DHT22;6523;49.758;6.120;2023-05-02T02:59:53;5.40;99.90
12911;DHT22;6523;49.758;6.120;2023-05-02T03:02:22;5.30;99.90
12911;DHT22;6523;49.758;6.120;2023-05-02T03:04:52;5.20;99.90
12911;DHT22;6523;49.758;6.120;2023-05-02T03:07:19;5.20;99.90
12911;DHT22;6523;49.758;6.120;2023-05-02T03:09:46;5.40;99.90
12911;DHT22;6523;49.758;6.120;2023-05-02T03:12:12;5.40;99.90
12911;DHT22;6523;49.758;6.120;2023-05-02T03:14:38;5.60;99.90
12911;DHT22;6523;49.758;6.120;2023-05-02T03:17:04;5.60;99.90
12911;DHT22;6523;49.758;6.120;2023-05-02T03:19:30;5.70;99.90
12911;DHT22;6523;49.758;6.120;2023-05-02T03:21:56;5.50;99.90
12911;DHT22;6523;49.758;6.120;2023-05-02T03:24:21;5.60;99.90
12911;DHT22;6523;49.758;6.120;2023-05-02T03:26:47;5.60;99.90
12911;DHT22;6523;49.758;6.120;2023-05-02T03:29:13;5.60;99.90
12911;DHT22;6523;49.758;6.120;2023-05-02T03:31:39;5.60;99.90
12911;DHT22;6523;49.758;6.120;2023-05-02T03:34:05;5.80;99.90
12911;DHT22;6523;49.758;6.120;2023-05-02T03:36:31;6.00;99.90
12911;DHT22;6523;49.758;6.120;2023-05-02T03:38:56;5.90;99.90
12911;DHT22;6523;49.758;6.120;2023-05-02T03:41:22;5.90;99.90
12911;DHT22;6523;49.758;6.120;2023-05-02T03:43:49;5.90;99.90
12911;DHT22;6523;49.758;6.120;2023-05-02T03:46:15;5.80;99.90
12911;DHT22;6523;49.758;6.120;2023-05-02T03:48:40;5.80;99.90
12911;DHT22;6523;49.758;6.120;2023-05-02T03:51:06;5.70;99.90
12911;DHT22;6523;49.758;6.120;2023-05-02T03:53:35;5.80;99.90
12911;DHT22;6523;49.758;6.120;2023-05-02T03:56:00;5.80;99.90
12911;DHT22;6523;49.758;6.120;2023-05-02T03:58:26;5.70;99.90
12911;DHT22;6523;49.758;6.120;2023-05-02T04:00:52;5.80;99.90
12911;DHT22;6523;49.758;6.120;2023-05-02T04:03:19;5.90;99.90
12911;DHT22;6523;49.758;6.120;2023-05-02T04:05:45;5.90;99.90
12911;DHT22;6523;49.758;6.120;2023-05-02T04:08:10;5.90;99.90
12911;DHT22;6523;49.758;6.120;2023-05-02T04:10:36;5.90;99.90
12911;DHT22;6523;49.758;6.120;2023-05-02T04:13:02;5.90;99.90
12911;DHT22;6523;49.758;6.120;2023-05-02T04:15:28;6.00;99.90
12911;DHT22;6523;49.758;6.120;2023-05-02T04:17:54;6.00;99.90
12911;DHT22;6523;49.758;6.120;2023-05-02T04:20:21;6.00;99.90
12911;DHT22;6523;49.758;6.120;2023-05-02T04:22:47;6.00;99.90
12911;DHT22;6523;49.758;6.120;2023-05-02T04:25:14;6.00;99.90
12911;DHT22;6523;49.758;6.120;2023-05-02T04:27:40;6.00;99.90
12911;DHT22;6523;49.758;6.120;2023-05-02T04:30:06;6.00;99.90
12911;DHT22;6523;49.758;6.120;2023-05-02T04:32:31;6.10;99.90
12911;DHT22;6523;49.758;6.120;2023-05-02T04:34:58;6.20;99.90
12911;DHT22;6523;49.758;6.120;2023-05-02T04:37:24;6.20;99.90
12911;DHT22;6523;49.758;6.120;2023-05-02T04:39:50;6.30;99.90
12911;DHT22;6523;49.758;6.120;2023-05-02T04:42:15;6.30;99.90
12911;DHT22;6523;49.758;6.120;2023-05-02T04:44:41;6.30;99.90
12911;DHT22;6523;49.758;6.120;2023-05-02T04:47:06;6.40;99.90
12911;DHT22;6523;49.758;6.120;2023-05-02T04:49:32;6.60;99.90
12911;DHT22;6523;49.758;6.120;2023-05-02T04:51:58;6.80;99.90
12911;DHT22;6523;49.758;6.120;2023-05-02T04:54:23;6.90;99.90
12911;DHT22;6523;49.758;6.120;2023-05-02T04:56:49;6.90;99.90
12911;DHT22;6523;49.758;6.120;2023-05-02T04:59:14;6.90;99.90
12911;DHT22;6523;49.758;6.120;2023-05-02T05:01:40;7.00;99.90
12911;DHT22;6523;49.758;6.120;2023-05-02T05:04:05;7.00;99.90
12911;DHT22;6523;49.758;6.120;2023-05-02T05:06:31;7.20;99.90
12911;DHT22;6523;49.758;6.120;2023-05-02T05:08:57;7.70;99.90
12911;DHT22;6523;49.758;6.120;2023-05-02T05:11:22;7.80;99.90
12911;DHT22;6523;49.758;6.120;2023-05-02T05:13:48;7.80;99.90
12911;DHT22;6523;49.758;6.120;2023-05-02T05:16:14;8.00;99.90
12911;DHT22;6523;49.758;6.120;2023-05-02T05:18:40;8.10;99.90
12911;DHT22;6523;49.758;6.120;2023-05-02T05:21:06;8.40;99.90
12911;DHT22;6523;49.758;6.120;2023-05-02T05:23:33;8.50;99.90
12911;DHT22;6523;49.758;6.120;2023-05-02T05:26:08;8.60;99.90
12911;DHT22;6523;49.758;6.120;2023-05-02T05:28:34;8.40;99.90
12911;DHT22;6523;49.758;6.120;2023-05-02T05:31:04;8.30;99.90
12911;DHT22;6523;49.758;6.120;2023-05-02T05:33:30;8.40;99.90
12911;DHT22;6523;49.758;6.120;2023-05-02T05:35:56;8.50;99.90
12911;DHT22;6523;49.758;6.120;2023-05-02T05:38:27;8.60;99.90
12911;DHT22;6523;49.758;6.120;2023-05-02T05:40:52;8.70;99.90
12911;DHT22;6523;49.758;6.120;2023-05-02T05:43:18;8.80;99.90
12911;DHT22;6523;49.758;6.120;2023-05-02T05:45:43;9.00;99.90
12911;DHT22;6523;49.758;6.120;2023-05-02T05:48:09;9.00;99.90
12911;DHT22;6523;49.758;6.120;2023-05-02T05:50:35;9.10;99.90
12911;DHT22;6523;49.758;6.120;2023-05-02T05:53:00;9.20;99.90
12911;DHT22;6523;49.758;6.120;2023-05-02T05:55:26;9.30;99.90
12911;DHT22;6523;49.758;6.120;2023-05-02T05:57:52;9.40;99.90
12911;DHT22;6523;49.758;6.120;2023-05-02T06:00:18;9.50;99.90
12911;DHT22;6523;49.758;6.120;2023-05-02T06:02:44;9.50;99.90
12911;DHT22;6523;49.758;6.120;2023-05-02T06:05:09;9.50;99.90
12911;DHT22;6523;49.758;6.120;2023-05-02T06:07:35;9.70;99.90
12911;DHT22;6523;49.758;6.120;2023-05-02T06:10:00;9.70;99.90
12911;DHT22;6523;49.758;6.120;2023-05-02T06:12:26;9.80;99.90
12911;DHT22;6523;49.758;6.120;2023-05-02T06:14:51;9.90;99.90
12911;DHT22;6523;49.758;6.120;2023-05-02T06:17:17;9.90;99.90
12911;DHT22;6523;49.758;6.120;2023-05-02T06:19:42;10.00;99.90
12911;DHT22;6523;49.758;6.120;2023-05-02T06:22:11;10.10;99.90
12911;DHT22;6523;49.758;6.120;2023-05-02T06:24:37;10.10;99.90
12911;DHT22;6523;49.758;6.120;2023-05-02T06:27:02;10.30;99.90
12911;DHT22;6523;49.758;6.120;2023-05-02T06:29:28;10.40;99.90
12911;DHT22;6523;49.758;6.120;2023-05-02T06:31:54;10.60;99.90
12911;DHT22;6523;49.758;6.120;2023-05-02T06:34:20;10.90;99.90
12911;DHT22;6523;49.758;6.120;2023-05-02T06:36:46;11.20;99.90
12911;DHT22;6523;49.758;6.120;2023-05-02T06:39:12;11.00;99.90
12911;DHT22;6523;49.758;6.120;2023-05-02T06:41:37;11.30;99.90
12911;DHT22;6523;49.758;6.120;2023-05-02T06:44:03;11.20;99.90
12911;DHT22;6523;49.758;6.120;2023-05-02T06:46:29;11.30;99.90
12911;DHT22;6523;49.758;6.120;2023-05-02T06:48:57;11.30;99.90
12911;DHT22;6523;49.758;6.120;2023-05-02T06:51:22;11.40;99.90
12911;DHT22;6523;49.758;6.120;2023-05-02T06:53:48;11.90;99.90
12911;DHT22;6523;49.758;6.120;2023-05-02T06:56:14;12.00;99.90
12911;DHT22;6523;49.758;6.120;2023-05-02T06:58:39;12.00;99.90
12911;DHT22;6523;49.758;6.120;2023-05-02T07:01:05;11.80;99.90
12911;DHT22;6523;49.758;6.120;2023-05-02T07:03:30;11.70;99.90
12911;DHT22;6523;49.758;6.120;2023-05-02T07:05:56;11.70;99.90
12911;DHT22;6523;49.758;6.120;2023-05-02T07:08:22;11.50;99.90
12911;DHT22;6523;49.758;6.120;2023-05-02T07:10:48;11.50;99.90
12911;DHT22;6523;49.758;6.120;2023-05-02T07:13:14;11.60;99.90
12911;DHT22;6523;49.758;6.120;2023-05-02T07:15:41;11.30;99.90
12911;DHT22;6523;49.758;6.120;2023-05-02T07:18:07;11.30;99.90
12911;DHT22;6523;49.758;6.120;2023-05-02T07:20:32;11.40;99.90
12911;DHT22;6523;49.758;6.120;2023-05-02T07:22:58;11.60;99.90
12911;DHT22;6523;49.758;6.120;2023-05-02T07:25:23;11.80;99.90
12911;DHT22;6523;49.758;6.120;2023-05-02T07:27:49;11.70;99.90
12911;DHT22;6523;49.758;6.120;2023-05-02T07:30:15;11.80;99.90
12911;DHT22;6523;49.758;6.120;2023-05-02T07:32:40;11.80;99.90
12911;DHT22;6523;49.758;6.120;2023-05-02T07:35:07;11.70;99.90
12911;DHT22;6523;49.758;6.120;2023-05-02T07:37:33;11.60;99.90
12911;DHT22;6523;49.758;6.120;2023-05-02T07:40:02;11.60;99.90
12911;DHT22;6523;49.758;6.120;2023-05-02T07:42:31;11.80;99.90
12911;DHT22;6523;49.758;6.120;2023-05-02T07:44:57;11.70;99.90
12911;DHT22;6523;49.758;6.120;2023-05-02T07:47:23;11.70;99.90
12911;DHT22;6523;49.758;6.120;2023-05-02T07:49:54;11.70;99.90
12911;DHT22;6523;49.758;6.120;2023-05-02T07:52:20;11.80;99.90
12911;DHT22;6523;49.758;6.120;2023-05-02T07:54:49;12.20;99.90
12911;DHT22;6523;49.758;6.120;2023-05-02T07:57:16;12.40;99.90
12911;DHT22;6523;49.758;6.120;2023-05-02T07:59:41;12.70;99.90
12911;DHT22;6523;49.758;6.120;2023-05-02T08:02:07;12.80;99.90
12911;DHT22;6523;49.758;6.120;2023-05-02T08:04:33;12.90;99.90
12911;DHT22;6523;49.758;6.120;2023-05-02T08:06:58;12.90;99.90
12911;DHT22;6523;49.758;6.120;2023-05-02T08:09:25;12.90;99.90
12911;DHT22;6523;49.758;6.120;2023-05-02T08:11:50;13.10;99.90
12911;DHT22;6523;49.758;6.120;2023-05-02T08:14:16;12.90;99.90
12911;DHT22;6523;49.758;6.120;2023-05-02T08:16:41;12.90;99.90
12911;DHT22;6523;49.758;6.120;2023-05-02T08:19:07;12.80;99.90
12911;DHT22;6523;49.758;6.120;2023-05-02T08:21:33;12.80;99.90
12911;DHT22;6523;49.758;6.120;2023-05-02T08:23:59;12.70;99.90
12911;DHT22;6523;49.758;6.120;2023-05-02T08:26:25;12.70;99.90
12911;DHT22;6523;49.758;6.120;2023-05-02T08:28:51;12.60;99.90
12911;DHT22;6523;49.758;6.120;2023-05-02T08:31:17;12.50;99.90
12911;DHT22;6523;49.758;6.120;2023-05-02T08:33:42;12.70;99.90
12911;DHT22;6523;49.758;6.120;2023-05-02T08:36:15;13.40;99.90
12911;DHT22;6523;49.758;6.120;2023-05-02T08:38:41;13.30;99.90
12911;DHT22;6523;49.758;6.120;2023-05-02T08:41:14;13.80;99.90
12911;DHT22;6523;49.758;6.120;2023-05-02T08:43:42;13.80;99.90
12911;DHT22;6523;49.758;6.120;2023-05-02T08:46:10;13.50;99.90
12911;DHT22;6523;49.758;6.120;2023-05-02T08:48:38;13.60;99.90
12911;DHT22;6523;49.758;6.120;2023-05-02T08:51:08;13.60;99.90
12911;DHT22;6523;49.758;6.120;2023-05-02T08:53:34;13.40;99.90
12911;DHT22;6523;49.758;6.120;2023-05-02T08:56:01;13.40;99.90
12911;DHT22;6523;49.758;6.120;2023-05-02T08:58:27;13.80;99.90
12911;DHT22;6523;49.758;6.120;2023-05-02T09:00:56;13.70;99.90
12911;DHT22;6523;49.758;6.120;2023-05-02T09:03:31;14.60;99.90
12911;DHT22;6523;49.758;6.120;2023-05-02T09:06:10;15.40;99.90
12911;DHT22;6523;49.758;6.120;2023-05-02T09:08:39;15.80;99.90
12911;DHT22;6523;49.758;6.120;2023-05-02T09:11:06;16.30;99.90
12911;DHT22;6523;49.758;6.120;2023-05-02T09:16:19;15.20;99.90
12911;DHT22;6523;49.758;6.120;2023-05-02T09:18:50;15.00;99.90
12911;DHT22;6523;49.758;6.120;2023-05-02T09:21:18;14.90;99.90
12911;DHT22;6523;49.758;6.120;2023-05-02T09:24:29;14.80;99.90
12911;DHT22;6523;49.758;6.120;2023-05-02T09:26:30;14.70;99.90
12911;DHT22;6523;49.758;6.120;2023-05-02T09:29:00;14.60;99.90
12911;DHT22;6523;49.758;6.120;2023-05-02T09:31:28;14.40;99.90
12911;DHT22;6523;49.758;6.120;2023-05-02T09:33:55;14.60;99.90
12911;DHT22;6523;49.758;6.120;2023-05-02T09:36:22;14.70;99.90
12911;DHT22;6523;49.758;6.120;2023-05-02T09:38:49;14.70;99.90
12911;DHT22;6523;49.758;6.120;2023-05-02T09:41:15;15.00;99.90
12911;DHT22;6523;49.758;6.120;2023-05-02T09:43:54;15.00;99.90
12911;DHT22;6523;49.758;6.120;2023-05-02T09:46:21;15.30;99.90
12911;DHT22;6523;49.758;6.120;2023-05-02T09:48:56;15.20;99.90
12911;DHT22;6523;49.758;6.120;2023-05-02T09:51:23;15.10;99.90
12911;DHT22;6523;49.758;6.120;2023-05-02T09:53:50;15.20;99.90
12911;DHT22;6523;49.758;6.120;2023-05-02T09:56:16;15.50;99.90
12911;DHT22;6523;49.758;6.120;2023-05-02T09:58:41;15.60;99.90
12911;DHT22;6523;49.758;6.120;2023-05-02T10:01:13;16.60;99.90
12911;DHT22;6523;49.758;6.120;2023-05-02T10:03:41;17.90;99.90
12911;DHT22;6523;49.758;6.120;2023-05-02T10:06:08;17.10;99.90
12911;DHT22;6523;49.758;6.120;2023-05-02T10:08:34;16.20;99.90
12911;DHT22;6523;49.758;6.120;2023-05-02T10:11:02;15.40;99.90
12911;DHT22;6523;49.758;6.120;2023-05-02T10:13:31;15.70;99.90
12911;DHT22;6523;49.758;6.120;2023-05-02T10:15:59;15.40;99.90
12911;DHT22;6523;49.758;6.120;2023-05-02T10:18:37;15.60;99.90
12911;DHT22;6523;49.758;6.120;2023-05-02T10:21:08;16.90;99.90
12911;DHT22;6523;49.758;6.120;2023-05-02T10:23:34;17.60;99.90
12911;DHT22;6523;49.758;6.120;2023-05-02T10:26:00;18.40;99.90
12911;DHT22;6523;49.758;6.120;2023-05-02T10:28:26;18.50;99.90
12911;DHT22;6523;49.758;6.120;2023-05-02T10:30:53;18.50;99.90
12911;DHT22;6523;49.758;6.120;2023-05-02T10:33:21;18.90;99.90
12911;DHT22;6523;49.758;6.120;2023-05-02T10:35:47;18.70;99.90
12911;DHT22;6523;49.758;6.120;2023-05-02T10:38:16;18.70;99.90
12911;DHT22;6523;49.758;6.120;2023-05-02T10:40:48;19.10;99.90
12911;DHT22;6523;49.758;6.120;2023-05-02T10:43:21;18.40;99.90
12911;DHT22;6523;49.758;6.120;2023-05-02T10:45:47;17.20;99.90
12911;DHT22;6523;49.758;6.120;2023-05-02T10:50:50;16.00;99.90
12911;DHT22;6523;49.758;6.120;2023-05-02T10:56:13;18.30;99.90
12911;DHT22;6523;49.758;6.120;2023-05-02T10:58:40;19.10;99.90
12911;DHT22;6523;49.758;6.120;2023-05-02T11:03:55;20.10;99.90
12911;DHT22;6523;49.758;6.120;2023-05-02T11:06:22;20.00;99.90
12911;DHT22;6523;49.758;6.120;2023-05-02T11:08:47;20.10;99.90
12911;DHT22;6523;49.758;6.120;2023-05-02T11:11:39;20.20;99.90
12911;DHT22;6523;49.758;6.120;2023-05-02T11:14:05;20.60;99.90
12911;DHT22;6523;49.758;6.120;2023-05-02T11:22:31;20.60;99.90
12911;DHT22;6523;49.758;6.120;2023-05-02T11:24:57;19.00;99.90
12911;DHT22;6523;49.758;6.120;2023-05-02T11:29:55;16.80;99.90
12911;DHT22;6523;49.758;6.120;2023-05-02T11:32:20;16.90;99.90
12911;DHT22;6523;49.758;6.120;2023-05-02T11:34:48;19.50;99.90
12911;DHT22;6523;49.758;6.120;2023-05-02T11:37:19;20.30;99.90
12911;DHT22;6523;49.758;6.120;2023-05-02T11:39:45;20.10;99.90
12911;DHT22;6523;49.758;6.120;2023-05-02T11:42:27;20.80;99.90
12911;DHT22;6523;49.758;6.120;2023-05-02T11:44:56;21.20;99.90
12911;DHT22;6523;49.758;6.120;2023-05-02T11:47:21;21.50;99.90
12911;DHT22;6523;49.758;6.120;2023-05-02T11:49:47;21.30;99.90
12911;DHT22;6523;49.758;6.120;2023-05-02T11:52:13;22.00;99.90
12911;DHT22;6523;49.758;6.120;2023-05-02T11:54:40;21.80;99.90
12911;DHT22;6523;49.758;6.120;2023-05-02T11:57:05;20.90;99.90
12911;DHT22;6523;49.758;6.120;2023-05-02T11:59:54;20.90;99.90
12911;DHT22;6523;49.758;6.120;2023-05-02T12:02:38;20.40;99.90
12911;DHT22;6523;49.758;6.120;2023-05-02T12:05:04;19.70;99.90
12911;DHT22;6523;49.758;6.120;2023-05-02T12:07:44;19.00;99.90
12911;DHT22;6523;49.758;6.120;2023-05-02T12:10:10;18.30;99.90
12911;DHT22;6523;49.758;6.120;2023-05-02T12:12:37;18.00;99.90
12911;DHT22;6523;49.758;6.120;2023-05-02T12:15:08;17.60;99.90
12911;DHT22;6523;49.758;6.120;2023-05-02T12:17:40;17.40;99.90
12911;DHT22;6523;49.758;6.120;2023-05-02T12:20:07;17.40;99.90
12911;DHT22;6523;49.758;6.120;2023-05-02T12:22:33;17.30;99.90
12911;DHT22;6523;49.758;6.120;2023-05-02T12:24:59;17.30;99.90
12911;DHT22;6523;49.758;6.120;2023-05-02T12:27:25;17.30;99.90
12911;DHT22;6523;49.758;6.120;2023-05-02T12:29:51;17.50;99.90
12911;DHT22;6523;49.758;6.120;2023-05-02T12:32:27;18.00;99.90
12911;DHT22;6523;49.758;6.120;2023-05-02T12:34:54;20.30;99.90
12911;DHT22;6523;49.758;6.120;2023-05-02T12:37:24;21.40;99.90
12911;DHT22;6523;49.758;6.120;2023-05-02T12:39:50;21.60;99.90
12911;DHT22;6523;49.758;6.120;2023-05-02T12:42:19;21.70;99.90
12911;DHT22;6523;49.758;6.120;2023-05-02T12:44:46;21.30;99.90
12911;DHT22;6523;49.758;6.120;2023-05-02T12:47:15;19.80;99.90
12911;DHT22;6523;49.758;6.120;2023-05-02T12:50:07;18.40;99.90
12911;DHT22;6523;49.758;6.120;2023-05-02T12:52:50;17.60;99.90
12911;DHT22;6523;49.758;6.120;2023-05-02T12:55:25;17.30;99.90
12911;DHT22;6523;49.758;6.120;2023-05-02T12:58:07;17.10;99.90
12911;DHT22;6523;49.758;6.120;2023-05-02T13:00:37;17.10;99.90
12911;DHT22;6523;49.758;6.120;2023-05-02T13:03:03;17.70;99.90
12911;DHT22;6523;49.758;6.120;2023-05-02T13:05:29;19.10;99.90
12911;DHT22;6523;49.758;6.120;2023-05-02T13:07:55;19.20;99.90
12911;DHT22;6523;49.758;6.120;2023-05-02T13:10:21;17.50;99.90
12911;DHT22;6523;49.758;6.120;2023-05-02T13:12:47;18.00;99.90
12911;DHT22;6523;49.758;6.120;2023-05-02T13:15:13;19.70;99.90
12911;DHT22;6523;49.758;6.120;2023-05-02T13:17:39;20.80;99.90
12911;DHT22;6523;49.758;6.120;2023-05-02T13:20:05;21.10;99.90
12911;DHT22;6523;49.758;6.120;2023-05-02T13:22:32;20.90;99.90
12911;DHT22;6523;49.758;6.120;2023-05-02T13:24:58;19.30;99.90
12911;DHT22;6523;49.758;6.120;2023-05-02T13:27:24;20.70;99.90
12911;DHT22;6523;49.758;6.120;2023-05-02T13:29:49;19.30;99.90
12911;DHT22;6523;49.758;6.120;2023-05-02T13:32:15;20.30;99.90
12911;DHT22;6523;49.758;6.120;2023-05-02T13:34:41;20.40;99.90
12911;DHT22;6523;49.758;6.120;2023-05-02T13:37:07;21.30;99.90
12911;DHT22;6523;49.758;6.120;2023-05-02T13:39:33;21.80;99.90
12911;DHT22;6523;49.758;6.120;2023-05-02T13:41:59;20.80;99.90
12911;DHT22;6523;49.758;6.120;2023-05-02T13:44:28;21.30;99.90
12911;DHT22;6523;49.758;6.120;2023-05-02T13:46:54;19.80;99.90
12911;DHT22;6523;49.758;6.120;2023-05-02T13:49:20;19.80;99.90
12911;DHT22;6523;49.758;6.120;2023-05-02T13:51:46;20.10;99.90
12911;DHT22;6523;49.758;6.120;2023-05-02T13:54:11;20.50;99.90
12911;DHT22;6523;49.758;6.120;2023-05-02T13:56:37;19.70;99.90
12911;DHT22;6523;49.758;6.120;2023-05-02T13:59:04;20.20;99.90
12911;DHT22;6523;49.758;6.120;2023-05-02T14:01:30;20.60;99.90
12911;DHT22;6523;49.758;6.120;2023-05-02T14:03:56;21.00;99.90
12911;DHT22;6523;49.758;6.120;2023-05-02T14:06:21;20.40;99.90
12911;DHT22;6523;49.758;6.120;2023-05-02T14:08:47;19.90;99.90
12911;DHT22;6523;49.758;6.120;2023-05-02T14:11:12;18.90;99.90
12911;DHT22;6523;49.758;6.120;2023-05-02T14:13:38;17.60;99.90
12911;DHT22;6523;49.758;6.120;2023-05-02T14:16:04;17.30;99.90
12911;DHT22;6523;49.758;6.120;2023-05-02T14:18:29;17.20;99.90
12911;DHT22;6523;49.758;6.120;2023-05-02T14:20:55;16.90;99.90
12911;DHT22;6523;49.758;6.120;2023-05-02T14:23:24;18.00;99.90
12911;DHT22;6523;49.758;6.120;2023-05-02T14:25:50;18.70;99.90
12911;DHT22;6523;49.758;6.120;2023-05-02T14:28:16;18.10;99.90
12911;DHT22;6523;49.758;6.120;2023-05-02T14:30:41;17.30;99.90
12911;DHT22;6523;49.758;6.120;2023-05-02T14:33:07;18.30;99.90
12911;DHT22;6523;49.758;6.120;2023-05-02T14:35:32;19.60;99.90
12911;DHT22;6523;49.758;6.120;2023-05-02T14:37:58;19.80;99.90
12911;DHT22;6523;49.758;6.120;2023-05-02T14:40:23;20.20;99.90
12911;DHT22;6523;49.758;6.120;2023-05-02T14:42:49;20.80;99.90
12911;DHT22;6523;49.758;6.120;2023-05-02T14:45:14;20.70;99.90
12911;DHT22;6523;49.758;6.120;2023-05-02T14:47:40;21.00;99.90
12911;DHT22;6523;49.758;6.120;2023-05-02T14:50:06;21.00;99.90
12911;DHT22;6523;49.758;6.120;2023-05-02T14:52:31;21.20;99.90
12911;DHT22;6523;49.758;6.120;2023-05-02T14:55:01;20.90;99.90
12911;DHT22;6523;49.758;6.120;2023-05-02T14:57:26;20.50;90.40
12911;DHT22;6523;49.758;6.120;2023-05-02T14:59:52;19.60;89.90
12911;DHT22;6523;49.758;6.120;2023-05-02T15:02:18;19.70;96.00
12911;DHT22;6523;49.758;6.120;2023-05-02T15:04:44;19.60;95.10
12911;DHT22;6523;49.758;6.120;2023-05-02T15:07:10;19.40;77.90
12911;DHT22;6523;49.758;6.120;2023-05-02T15:09:35;19.10;81.70
12911;DHT22;6523;49.758;6.120;2023-05-02T15:12:01;19.50;85.80
12911;DHT22;6523;49.758;6.120;2023-05-02T15:14:29;20.20;99.90
12911;DHT22;6523;49.758;6.120;2023-05-02T15:16:55;20.10;97.20
12911;DHT22;6523;49.758;6.120;2023-05-02T15:19:20;19.90;87.50
12911;DHT22;6523;49.758;6.120;2023-05-02T15:21:48;19.70;97.30
12911;DHT22;6523;49.758;6.120;2023-05-02T15:24:14;20.10;97.20
12911;DHT22;6523;49.758;6.120;2023-05-02T15:26:40;19.30;97.20
12911;DHT22;6523;49.758;6.120;2023-05-02T15:29:06;19.80;99.40
12911;DHT22;6523;49.758;6.120;2023-05-02T15:31:31;20.10;91.20
12911;DHT22;6523;49.758;6.120;2023-05-02T15:33:58;20.70;99.80
12911;DHT22;6523;49.758;6.120;2023-05-02T15:36:27;20.90;96.80
12911;DHT22;6523;49.758;6.120;2023-05-02T15:38:57;20.70;96.30
12911;DHT22;6523;49.758;6.120;2023-05-02T15:41:24;20.50;93.10
12911;DHT22;6523;49.758;6.120;2023-05-02T15:43:51;20.60;94.40
12911;DHT22;6523;49.758;6.120;2023-05-02T15:46:16;20.30;94.50
12911;DHT22;6523;49.758;6.120;2023-05-02T15:48:42;20.20;92.00
12911;DHT22;6523;49.758;6.120;2023-05-02T15:51:07;20.40;88.70
12911;DHT22;6523;49.758;6.120;2023-05-02T15:53:38;20.70;89.20
12911;DHT22;6523;49.758;6.120;2023-05-02T15:56:15;20.50;68.00
12911;DHT22;6523;49.758;6.120;2023-05-02T15:58:41;19.90;69.80
12911;DHT22;6523;49.758;6.120;2023-05-02T16:01:07;20.20;86.10
12911;DHT22;6523;49.758;6.120;2023-05-02T16:03:32;20.00;76.20
12911;DHT22;6523;49.758;6.120;2023-05-02T16:05:58;20.20;83.70
12911;DHT22;6523;49.758;6.120;2023-05-02T16:08:25;19.90;78.50
12911;DHT22;6523;49.758;6.120;2023-05-02T16:10:50;19.70;82.40
12911;DHT22;6523;49.758;6.120;2023-05-02T16:13:17;19.90;62.80
12911;DHT22;6523;49.758;6.120;2023-05-02T16:15:42;20.30;83.10
12911;DHT22;6523;49.758;6.120;2023-05-02T16:18:08;20.60;92.00
12911;DHT22;6523;49.758;6.120;2023-05-02T16:20:34;20.60;65.10
12911;DHT22;6523;49.758;6.120;2023-05-02T16:23:01;19.70;68.90
12911;DHT22;6523;49.758;6.120;2023-05-02T16:25:27;19.40;89.50
12911;DHT22;6523;49.758;6.120;2023-05-02T16:27:53;19.50;85.90
12911;DHT22;6523;49.758;6.120;2023-05-02T16:30:18;19.40;87.10
12911;DHT22;6523;49.758;6.120;2023-05-02T16:32:44;19.60;85.80
12911;DHT22;6523;49.758;6.120;2023-05-02T16:35:10;19.70;90.00